x

Pensacola - 115nm Ese Of Pensacola, Fl (42039) Wave Buoy

1:50pm - Mon 21st Aug 2017 All times are CDT. -5 hours from GMT.

  • Sig Wave height 3.3ft
  • Swell Direction
  • Peak Period 4s
  • Average Period 4s
  • Wind
    18mph, 20mph gusts
  • Sea Temp 86°f
  • Air Temp 79°f
  • Sea Pressure 1018.8mb
  • Pensacola - 115nm Ese Of Pensacola, Fl
  • Pensacola - 115nm Ese Of Pensacola, Fl

More Historic Weather Station data

Upgrade to MSW Pro to gain access to the past 30 days of data for over 8000 Wavebouys and Weather Stations around the globe.

Join

Comparision Forecast

View Surf forecast
   
Mon 08/21 1:50pm 3.5ft 4s 4s 18 20 mph 1018.8mb 86f 79f
12:50pm 2ft 5s 4s 18 20 mph 1019.5mb 86f 84f
11:50am 1.6ft 4s  -  11 13 mph 1019.6mb 86f 85f
10:50am 1.6ft 4s 4s 13 13 mph 1019.9mb 86f 85f
9:50am 1.3ft 4s 4s 13 16 mph 1019.5mb 86f 86f
7:50am 1.3ft 3s 4s 9 11 mph 1018.5mb 86f 85f
6:50am 1.3ft 7s 4s 11 11 mph 1018mb 86f 85f
5:50am  -   -   -  11 13 mph 1017.4mb 86f 84f
4:50am 1ft 7s 4s 7 7 mph 1017mb 86f 84f
3:50am  -   -   -  4 7 mph 1016.6mb 87f 83f
2:50am 0.7ft  -  4s 9 11 mph 1016.8mb 87f 85f
1:50am 1ft 8s 4s 9 11 mph 1017.8mb 87f 85f
12:50am 0.7ft  -  4s 7 9 mph 1018.2mb 86f 85f
Sun 08/20 11:50pm 0.7ft  -  4s 7 9 mph 1018.2mb 86f 85f
10:50pm 0.7ft  -  4s 9 11 mph 1018.4mb 87f 85f
9:50pm 0.7ft  -  4s 9 9 mph 1018.2mb 87f 85f
7:50pm 0.7ft  -  4s 4 7 mph 1016.7mb 87f 85f
5:50pm 0.7ft  -  4s 4 9 mph 1015.7mb 87f 86f
4:50pm 0.7ft  -  4s 7 9 mph 1015.5mb 87f 86f
3:50pm 1ft 8s 3s 7 9 mph 1015.7mb 87f 85f
2:50pm 1ft 8s 3s 11 11 mph 1016.2mb 87f 85f
1:50pm 1ft 8s 4s 11 13 mph 1016.8mb 87f 85f
12:50pm 1ft 8s 4s 7 7 mph 1017.4mb 87f 85f
11:50am 1ft 8s 5s 7 7 mph 1017.5mb 88f 85f
10:50am 1ft 8s 4s 2 4 mph 1017.4mb 87f 85f
9:50am 1ft 8s 4s 4 7 mph 1017.4mb 87f 85f
8:50am 1ft 8s 4s 2 4 mph 1017mb 86f 85f
7:50am 1ft 8s 4s 2 2 mph 1016.4mb 85f 85f
6:50am 1.3ft 8s 4s 2 2 mph 1016.1mb 86f 84f
5:50am 1.3ft 4s 4s 2 4 mph 1015.6mb 86f 84f
4:50am 1.3ft 8s 4s 2 2 mph 1015.1mb 86f 84f
3:50am 1.3ft 4s 4s 2 4 mph 1014.9mb 86f 84f
2:50am 1.3ft 5s 4s 2 4 mph 1014.8mb 86f 84f
1:50am 1.3ft 5s 4s 4 4 mph 1014.9mb 86f 84f
12:50am 1.3ft 8s 4s 4 7 mph 1015mb 86f 84f
Sat 08/19 11:50pm 1.3ft 8s 4s 4 4 mph 1015.3mb 86f 84f
10:50pm 1.3ft 8s 4s 4 4 mph 1015.6mb 86f 84f
9:50pm 1.6ft 4s 4s 4 7 mph 1015.5mb 86f 84f
8:50pm 1.6ft 8s 4s 7 9 mph 1014.8mb 86f 84f
7:50pm 1.6ft 8s 4s 9 11 mph 1014mb 86f 84f
6:50pm 2ft 4s 4s 9 11 mph 1013.9mb 86f 84f
5:50pm 2.5ft 5s 4s 11 13 mph 1014mb 87f 83f
4:50pm 2.5ft 5s 4s 13 16 mph 1014.1mb 87f 84f
3:50pm 2.5ft 5s 4s 13 18 mph 1014.4mb 86f 84f
2:50pm 2.5ft 5s 4s 7 9 mph 1015.1mb 86f 84f
1:50pm 2ft 8s 4s 11 13 mph 1015.4mb 86f 82f
12:50pm 1.6ft 4s 4s 22 27 mph 1015.6mb 86f 80f
11:50am 1.3ft 8s 4s 4 7 mph 1016.2mb 86f 85f
10:50am 1.3ft 8s 4s 2 7 mph 1016.2mb 87f 85f
9:50am 2.5ft 4s 3s 7 9 mph 1015.8mb 86f 83f
7:50am 1.6ft 8s 3s 11 13 mph 1015.5mb 86f 85f
6:50am 1.6ft 7s 4s 11 13 mph 1015.2mb 87f 86f
5:50am 1.3ft 7s 4s 11 13 mph 1014.5mb 87f 85f
4:50am 1.6ft 8s 4s 7 9 mph 1014.4mb 87f 85f
3:50am 1.3ft 8s 4s 11 13 mph 1014.1mb 87f 85f
2:50am 1.6ft 8s 4s 9 9 mph 1014.6mb 87f 85f
1:50am 1.3ft 8s 4s 7 9 mph 1014.9mb 87f 85f
12:50am 1.6ft 8s 4s 7 9 mph 1015.3mb 87f 85f
Fri 08/18 11:50pm 1.3ft 8s 4s 7 7 mph 1015.4mb 87f 85f
10:50pm 1.6ft 8s 4s 9 9 mph 1015.3mb 87f 85f
9:50pm 1.6ft 5s 4s 11 13 mph 1015mb 87f 86f
8:50pm 1.6ft 4s 4s 9 11 mph 1015.6mb 87f 85f
7:50pm 1.6ft 8s 4s 7 7 mph 1015.5mb 87f 85f
6:50pm 2ft 5s 4s 7 7 mph 1015.2mb 88f 86f
5:50pm 2ft 4s 4s 4 4 mph 1015.8mb 88f 86f
4:50pm 2ft 4s 4s 4 4 mph 1015.6mb 88f 87f
3:50pm 2ft 4s 4s 2 4 mph 1015.6mb 87f 87f
2:50pm 2ft 4s 4s 9 9 mph 1016.1mb 87f 86f
1:50pm 2.5ft 4s 4s 7 7 mph 1016.4mb 87f 85f
12:50pm 2.5ft 4s 4s 11 13 mph 1016.5mb 87f 85f
11:50am 2ft 4s 4s 7 9 mph 1017.3mb 87f 85f
10:50am 2.5ft 4s 4s 7 9 mph 1016.9mb 87f 85f
9:50am 2ft 3s 3s 9 13 mph 1017.3mb 87f 79f
8:50am 1.6ft 3s 3s 16 18 mph 1016.7mb 87f 86f
7:50am 1.6ft 7s 4s 13 16 mph 1016.1mb 87f 86f
6:50am 1.3ft 8s 4s 13 16 mph 1016.1mb 87f 86f
5:50am 1.3ft 7s 4s 13 13 mph 1015.9mb 87f 85f
4:50am 1.3ft 7s 5s 11 11 mph 1015.6mb 87f 85f
3:50am 1ft 8s 5s 9 11 mph 1015.5mb 87f 85f
2:50am 1ft 8s 6s 9 11 mph 1015.9mb 87f 85f
1:50am 1.3ft 8s 6s 7 9 mph 1016.3mb 87f 85f
12:50am 1ft 8s 5s 7 9 mph 1016.8mb 87f 85f
Thu 08/17 11:50pm 1ft 8s 6s 4 7 mph 1017.2mb 87f 86f
10:50pm 1.3ft 8s 6s 4 7 mph 1017.5mb 87f 86f
9:50pm 1ft 7s 5s 4 7 mph 1017.7mb 88f 86f
8:50pm 1ft 8s 5s 7 9 mph 1017.2mb 88f 86f